Time;durP1;ratioP1;P1;durP2;ratioP2;P2;SDS_P1;SDS_P2;PMS_P1;PMS_P2;Temp;Humidity;BMP_temperature;BMP_pressure;BME280_temperature;BME280_humidity;BME280_pressure;Samples;Min_cycle;Max_cycle;Signal;HPM_P1;HPM_P2
2022/03/06 00:00:56;;;;;;;17.70;8.07;;;5.80;61.00;;;;;;5048075;28;20055;-71
2022/03/06 00:03:22;;;;;;;18.75;8.60;;;5.90;61.60;;;;;;5048616;28;20044;-69
2022/03/06 00:05:48;;;;;;;18.00;8.75;;;5.90;62.10;;;;;;5080373;28;20463;-70
2022/03/06 00:08:13;;;;;;;15.85;8.25;;;5.80;62.70;;;;;;5048284;28;20022;-71
2022/03/06 00:10:39;;;;;;;17.88;8.18;;;5.90;62.60;;;;;;5047988;28;20086;-71
2022/03/06 00:13:04;;;;;;;13.07;7.20;;;5.90;62.70;;;;;;5047934;28;20451;-70
2022/03/06 00:15:30;;;;;;;17.10;8.15;;;5.80;63.30;;;;;;5047314;28;20461;-71
2022/03/06 00:17:56;;;;;;;15.68;8.45;;;5.70;63.20;;;;;;5047852;28;20025;-70
2022/03/06 00:20:21;;;;;;;15.43;8.45;;;5.80;64.80;;;;;;5047869;28;20045;-71
2022/03/06 00:22:48;;;;;;;15.25;7.82;;;5.80;64.40;;;;;;5046749;28;20044;-71
2022/03/06 00:25:13;;;;;;;14.25;7.75;;;5.80;64.90;;;;;;5047677;28;20041;-72
2022/03/06 00:27:39;;;;;;;14.15;8.43;;;5.80;65.40;;;;;;5047625;28;20026;-70
2022/03/06 00:30:06;;;;;;;16.30;7.95;;;5.70;65.60;;;;;;5047951;28;20033;-72
2022/03/06 00:32:31;;;;;;;19.88;8.63;;;5.80;65.90;;;;;;5047810;28;20053;-74
2022/03/06 00:34:57;;;;;;;18.25;8.50;;;5.80;66.00;;;;;;5047485;28;20095;-71
2022/03/06 00:37:22;;;;;;;14.85;7.70;;;5.80;66.40;;;;;;5047646;28;20033;-71
2022/03/06 00:39:48;;;;;;;14.95;7.72;;;5.90;66.40;;;;;;5047480;28;20026;-72
2022/03/06 00:42:14;;;;;;;16.35;8.65;;;5.90;66.80;;;;;;5047946;28;20056;-70
2022/03/06 00:44:39;;;;;;;16.77;8.32;;;5.90;67.30;;;;;;5047162;28;20056;-70
2022/03/06 00:47:05;;;;;;;15.13;7.88;;;5.80;67.40;;;;;;5047313;28;20025;-69
2022/03/06 00:49:32;;;;;;;14.38;7.68;;;5.80;67.60;;;;;;5047216;28;20033;-70
2022/03/06 00:51:58;;;;;;;15.60;7.55;;;5.80;68.00;;;;;;5047304;28;20116;-71
2022/03/06 00:54:24;;;;;;;14.20;7.25;;;5.80;68.50;;;;;;5046596;28;20064;-71
2022/03/06 00:56:49;;;;;;;17.10;7.80;;;5.80;68.50;;;;;;5038494;28;20038;-69
2022/03/06 00:59:15;;;;;;;14.90;7.10;;;5.90;68.80;;;;;;5033727;28;20038;-71
2022/03/06 01:01:41;;;;;;;15.15;7.57;;;5.80;69.30;;;;;;5032840;28;20033;-71
2022/03/06 01:04:06;;;;;;;13.40;7.68;;;5.90;69.10;;;;;;5033666;28;20112;-70
2022/03/06 01:06:32;;;;;;;13.57;7.20;;;6.00;69.70;;;;;;5033086;28;20030;-72
2022/03/06 01:08:58;;;;;;;15.48;7.85;;;5.80;70.20;;;;;;5033679;28;20026;-71
2022/03/06 01:11:24;;;;;;;15.13;7.82;;;5.80;71.00;;;;;;5032685;28;20029;-70
2022/03/06 01:13:50;;;;;;;13.35;7.18;;;5.80;70.90;;;;;;5033542;28;20045;-70
2022/03/06 01:16:16;;;;;;;15.75;7.20;;;5.80;71.10;;;;;;5033414;28;20102;-70
2022/03/06 01:18:42;;;;;;;19.38;7.60;;;5.80;70.80;;;;;;5033479;28;20144;-70
2022/03/06 01:21:08;;;;;;;16.45;7.25;;;5.80;71.10;;;;;;5033712;28;20021;-71
2022/03/06 01:23:35;;;;;;;16.42;7.40;;;5.90;71.20;;;;;;5033339;28;20037;-70
2022/03/06 01:26:05;;;;;;;16.13;7.17;;;5.80;71.40;;;;;;5033180;28;20037;-71
2022/03/06 01:28:31;;;;;;;16.50;7.63;;;5.90;71.30;;;;;;5032144;28;20048;-70
2022/03/06 01:30:57;;;;;;;13.82;7.22;;;5.90;71.80;;;;;;5033013;28;20030;-71
2022/03/06 01:33:22;;;;;;;12.27;6.90;;;5.80;72.00;;;;;;5033519;28;20060;-70
2022/03/06 01:35:48;;;;;;;16.65;6.75;;;5.80;72.30;;;;;;5033239;28;20443;-70
2022/03/06 01:38:13;;;;;;;14.77;6.80;;;5.90;72.10;;;;;;5031928;28;20415;-70
2022/03/06 01:40:39;;;;;;;13.82;6.82;;;5.80;72.60;;;;;;5032957;28;20519;-71
2022/03/06 01:43:05;;;;;;;14.30;6.75;;;5.80;73.10;;;;;;5033051;28;20124;-71
2022/03/06 01:45:30;;;;;;;14.23;7.10;;;5.80;72.80;;;;;;5033059;28;20345;-71
2022/03/06 01:47:58;;;;;;;12.73;6.38;;;5.70;73.50;;;;;;5032957;28;20025;-73
2022/03/06 01:50:30;;;;;;;14.13;6.93;;;5.80;73.60;;;;;;5032958;28;20470;-69
2022/03/06 01:52:57;;;;;;;12.57;7.15;;;5.80;73.80;;;;;;5032746;28;20030;-69
2022/03/06 01:55:25;;;;;;;13.43;6.57;;;5.80;73.90;;;;;;5032829;28;20113;-70
2022/03/06 01:57:56;;;;;;;12.07;6.57;;;5.70;74.10;;;;;;5031604;28;20037;-71
2022/03/06 02:00:24;;;;;;;16.50;6.63;;;5.70;74.40;;;;;;5031983;28;20021;-70
2022/03/06 02:02:50;;;;;;;15.18;6.93;;;5.70;74.60;;;;;;5032689;28;20410;-71
2022/03/06 02:05:16;;;;;;;14.45;6.32;;;5.80;74.70;;;;;;5032505;28;20125;-71
2022/03/06 02:07:42;;;;;;;13.90;6.95;;;5.70;74.80;;;;;;5031626;28;20037;-70
2022/03/06 02:10:09;;;;;;;15.88;7.55;;;5.70;75.00;;;;;;5032319;28;20033;-70
2022/03/06 02:12:35;;;;;;;13.73;6.50;;;5.60;75.20;;;;;;5032813;28;20309;-71
2022/03/06 02:15:05;;;;;;;12.27;6.20;;;5.70;75.50;;;;;;5032375;28;20332;-71
2022/03/06 02:17:31;;;;;;;14.38;6.47;;;5.70;75.40;;;;;;5032246;28;20590;-70
2022/03/06 02:20:03;;;;;;;11.25;5.78;;;5.70;75.60;;;;;;5032453;28;20671;-69
2022/03/06 02:22:31;;;;;;;13.82;6.72;;;5.70;75.50;;;;;;5032292;28;20144;-70
2022/03/06 02:24:58;;;;;;;12.23;6.10;;;5.70;75.50;;;;;;5032054;28;20045;-70
2022/03/06 02:27:23;;;;;;;13.77;5.78;;;5.60;76.00;;;;;;5032434;28;20108;-71
2022/03/06 02:29:49;;;;;;;13.05;5.93;;;5.60;76.20;;;;;;5032005;28;20121;-70
2022/03/06 02:32:18;;;;;;;12.07;6.13;;;5.50;76.40;;;;;;5030853;28;20363;-70
2022/03/06 02:34:45;;;;;;;13.13;5.72;;;5.50;76.40;;;;;;5031835;28;20038;-69
2022/03/06 02:37:12;;;;;;;9.10;5.45;;;5.60;76.40;;;;;;5031829;28;20498;-71
2022/03/06 02:39:38;;;;;;;12.73;6.18;;;5.60;76.40;;;;;;5031853;28;20099;-70
2022/03/06 02:42:04;;;;;;;11.68;6.13;;;5.60;76.50;;;;;;5032208;28;20451;-70
2022/03/06 02:44:30;;;;;;;10.43;6.18;;;5.50;76.40;;;;;;5030579;28;20050;-70
2022/03/06 02:46:56;;;;;;;10.63;5.13;;;5.50;76.30;;;;;;5031987;28;20112;-71
2022/03/06 02:49:21;;;;;;;12.80;5.75;;;5.60;76.20;;;;;;5031933;28;20220;-70
2022/03/06 02:51:47;;;;;;;9.13;5.38;;;5.60;76.80;;;;;;5031585;28;20424;-70
2022/03/06 02:54:17;;;;;;;14.65;5.85;;;5.60;76.20;;;;;;5032013;28;20017;-70
2022/03/06 02:56:44;;;;;;;12.63;5.07;;;5.60;76.20;;;;;;5031667;28;20036;-70
2022/03/06 02:59:10;;;;;;;12.13;5.03;;;5.60;76.00;;;;;;5031532;28;20060;-70
2022/03/06 03:01:40;;;;;;;9.13;5.03;;;5.60;76.10;;;;;;5031442;28;20287;-70
2022/03/06 03:04:06;;;;;;;9.00;4.63;;;5.60;76.00;;;;;;5031583;28;20021;-70
2022/03/06 03:06:32;;;;;;;8.00;3.97;;;5.50;76.00;;;;;;5031858;28;20033;-70
2022/03/06 03:08:58;;;;;;;10.20;4.78;;;5.60;76.00;;;;;;5031317;28;20048;-70
2022/03/06 03:11:23;;;;;;;8.77;4.28;;;5.60;76.00;;;;;;5031840;28;20038;-70
2022/03/06 03:13:52;;;;;;;7.88;4.25;;;5.60;76.00;;;;;;5031160;28;20077;-70
2022/03/06 03:16:17;;;;;;;9.68;4.68;;;5.50;75.80;;;;;;5031426;28;20037;-70
2022/03/06 03:18:43;;;;;;;10.07;4.57;;;5.60;75.80;;;;;;5031226;28;20013;-70
2022/03/06 03:21:09;;;;;;;11.93;4.38;;;5.60;75.70;;;;;;5032062;28;20456;-70
2022/03/06 03:23:34;;;;;;;7.38;4.40;;;5.50;76.00;;;;;;5031292;28;20025;-71
2022/03/06 03:26:00;;;;;;;11.05;4.63;;;5.50;75.90;;;;;;5031118;28;20037;-71
2022/03/06 03:28:25;;;;;;;8.60;4.57;;;5.50;75.90;;;;;;5031151;28;20038;-70
2022/03/06 03:30:51;;;;;;;9.45;4.30;;;5.50;76.10;;;;;;5031224;28;20044;-71
2022/03/06 03:33:16;;;;;;;9.23;4.60;;;5.50;76.00;;;;;;5031397;28;20029;-70
2022/03/06 03:35:42;;;;;;;7.70;4.40;;;5.50;76.00;;;;;;5030991;28;20026;-71
2022/03/06 03:38:07;;;;;;;11.73;3.90;;;5.50;75.90;;;;;;5030896;28;20037;-69
2022/03/06 03:40:33;;;;;;;8.57;3.88;;;5.50;76.00;;;;;;5030962;28;20144;-70
2022/03/06 03:42:59;;;;;;;8.35;4.15;;;5.50;75.90;;;;;;5030846;28;20026;-71
2022/03/06 03:45:24;;;;;;;9.50;3.75;;;5.60;75.60;;;;;;5031029;28;20175;-70
2022/03/06 03:47:50;;;;;;;7.63;3.92;;;5.50;75.30;;;;;;5030830;28;20033;-70
2022/03/06 03:50:16;;;;;;;7.45;3.78;;;5.60;75.20;;;;;;5029743;28;20030;-71
2022/03/06 03:52:41;;;;;;;9.02;4.35;;;5.60;74.90;;;;;;5029863;28;20026;-71
2022/03/06 03:55:07;;;;;;;8.15;3.90;;;5.70;74.60;;;;;;5030857;28;20379;-71
2022/03/06 03:57:33;;;;;;;9.25;3.88;;;5.60;74.50;;;;;;5031276;28;20440;-70
2022/03/06 03:59:59;;;;;;;8.98;3.42;;;5.50;74.20;;;;;;5030874;28;20331;-70
2022/03/06 04:02:25;;;;;;;8.38;3.90;;;5.50;74.10;;;;;;5030816;28;20025;-70
2022/03/06 04:04:50;;;;;;;6.10;3.25;;;5.40;74.30;;;;;;5029675;28;20038;-71
2022/03/06 04:07:16;;;;;;;6.70;3.42;;;5.60;74.50;;;;;;5030656;28;20517;-70
2022/03/06 04:09:42;;;;;;;8.60;3.55;;;5.50;74.20;;;;;;5030588;28;20065;-70
2022/03/06 04:12:08;;;;;;;6.68;3.20;;;5.50;73.80;;;;;;5031018;28;20022;-70
2022/03/06 04:14:34;;;;;;;7.03;3.65;;;5.40;74.00;;;;;;5030641;28;20116;-71
2022/03/06 04:17:00;;;;;;;6.53;3.58;;;5.40;73.90;;;;;;5030772;28;20196;-70
2022/03/06 04:19:26;;;;;;;6.30;3.08;;;5.40;74.00;;;;;;5029600;28;20044;-71
2022/03/06 04:21:52;;;;;;;9.90;3.67;;;5.40;73.90;;;;;;5030660;28;20036;-71
2022/03/06 04:24:18;;;;;;;8.82;3.42;;;5.40;74.20;;;;;;5031000;28;20144;-70
2022/03/06 04:26:43;;;;;;;9.13;3.92;;;5.40;74.30;;;;;;5030585;28;20105;-69
2022/03/06 04:29:09;;;;;;;6.38;3.35;;;5.30;74.60;;;;;;5030643;28;20037;-70
2022/03/06 04:31:35;;;;;;;5.72;3.53;;;5.40;74.80;;;;;;5031872;28;20025;-70
2022/03/06 04:34:01;;;;;;;10.80;3.92;;;5.40;75.00;;;;;;5034172;28;20503;-70
2022/03/06 04:36:26;;;;;;;7.63;3.45;;;5.40;75.00;;;;;;5034805;28;20029;-70
2022/03/06 04:38:52;;;;;;;6.70;3.28;;;5.40;75.00;;;;;;5034286;28;20057;-69
2022/03/06 04:41:18;;;;;;;9.68;3.60;;;5.30;75.50;;;;;;5034428;28;20109;-70
2022/03/06 04:43:44;;;;;;;8.32;3.47;;;5.30;75.60;;;;;;5034285;28;20030;-70
2022/03/06 04:46:10;;;;;;;7.07;3.58;;;5.20;75.70;;;;;;5032957;28;20041;-70
2022/03/06 04:48:36;;;;;;;6.38;3.45;;;5.10;75.60;;;;;;5033434;28;20026;-69
2022/03/06 04:51:10;;;;;;;8.60;3.40;;;5.20;75.80;;;;;;5033068;28;20037;-69
2022/03/06 04:53:39;;;;;;;6.72;3.38;;;5.10;76.00;;;;;;5033982;28;20459;-69
2022/03/06 04:56:06;;;;;;;8.45;3.88;;;5.20;76.00;;;;;;5033780;28;20033;-69
2022/03/06 04:58:31;;;;;;;12.23;3.55;;;5.10;75.80;;;;;;5033912;28;20029;-70
2022/03/06 05:00:57;;;;;;;7.18;3.92;;;5.10;75.80;;;;;;5033807;28;20128;-70
2022/03/06 05:03:23;;;;;;;5.80;3.00;;;5.10;75.80;;;;;;5034061;28;20033;-70
2022/03/06 05:05:49;;;;;;;12.93;4.50;;;5.10;75.80;;;;;;5033683;28;20040;-71
2022/03/06 05:08:14;;;;;;;10.80;3.38;;;5.00;75.90;;;;;;5032625;28;20105;-71
2022/03/06 05:10:40;;;;;;;7.93;3.60;;;5.10;76.00;;;;;;5033516;28;20533;-70
2022/03/06 05:13:06;;;;;;;7.43;3.75;;;5.10;75.90;;;;;;5033539;28;20029;-70
2022/03/06 05:15:32;;;;;;;8.85;3.60;;;5.10;76.00;;;;;;5033824;28;20033;-70
2022/03/06 05:17:57;;;;;;;8.77;3.63;;;5.00;75.90;;;;;;5033684;28;20037;-70
2022/03/06 05:20:23;;;;;;;6.95;3.35;;;5.00;75.70;;;;;;5033681;28;20539;-70
2022/03/06 05:22:49;;;;;;;7.70;3.40;;;5.00;75.80;;;;;;5032315;28;20049;-70
2022/03/06 05:25:15;;;;;;;9.75;3.65;;;4.90;75.80;;;;;;5033277;28;20050;-71
2022/03/06 05:27:41;;;;;;;5.60;3.30;;;4.90;75.90;;;;;;5033287;28;20033;-70
2022/03/06 05:30:09;;;;;;;6.85;3.85;;;5.00;75.90;;;;;;5033772;28;20376;-70
2022/03/06 05:32:35;;;;;;;;;;;5.00;75.70;;;;;;5033741;28;20340;-70
2022/03/06 05:35:01;;;;;;;5.45;3.30;;;4.90;76.00;;;;;;5032037;28;19909;-71
2022/03/06 05:37:27;;;;;;;7.20;3.15;;;4.90;75.70;;;;;;5033303;28;20044;-70
2022/03/06 05:39:52;;;;;;;8.43;3.08;;;4.90;76.10;;;;;;5033126;28;20037;-69
2022/03/06 05:42:19;;;;;;;11.85;3.30;;;4.90;75.80;;;;;;5033527;28;20017;-70
2022/03/06 05:44:45;;;;;;;7.18;3.67;;;4.90;75.80;;;;;;5032778;28;20133;-70
2022/03/06 05:47:11;;;;;;;7.50;3.50;;;5.00;75.60;;;;;;5032805;28;20117;-70
2022/03/06 05:49:36;;;;;;;8.00;3.40;;;5.00;75.50;;;;;;5032929;28;20128;-70
2022/03/06 05:52:03;;;;;;;6.47;2.80;;;5.00;75.40;;;;;;5032700;28;20030;-71
2022/03/06 05:54:29;;;;;;;10.23;3.78;;;5.00;75.40;;;;;;5033482;28;20037;-70
2022/03/06 05:56:55;;;;;;;6.35;3.28;;;5.00;75.30;;;;;;5031641;28;20045;-71
2022/03/06 05:59:20;;;;;;;10.52;3.72;;;4.90;75.30;;;;;;5032718;28;20034;-69
2022/03/06 06:01:46;;;;;;;6.35;3.38;;;4.90;75.50;;;;;;5031613;28;20371;-71
2022/03/06 06:04:12;;;;;;;8.38;3.50;;;4.90;75.50;;;;;;5031641;28;20047;-71
2022/03/06 06:06:38;;;;;;;6.93;3.38;;;4.90;75.80;;;;;;5032510;28;20036;-69
2022/03/06 06:09:04;;;;;;;7.97;3.17;;;4.90;75.70;;;;;;5032906;28;20431;-69
2022/03/06 06:11:30;;;;;;;7.05;2.97;;;4.90;75.50;;;;;;5032383;28;20534;-70
2022/03/06 06:13:55;;;;;;;10.63;3.42;;;4.90;75.30;;;;;;5032394;28;20034;-70
2022/03/06 06:16:21;;;;;;;8.00;3.50;;;4.90;75.20;;;;;;5032352;28;20418;-71
2022/03/06 06:18:47;;;;;;;5.07;3.15;;;4.90;75.10;;;;;;5031261;28;20035;-71
2022/03/06 06:21:13;;;;;;;8.90;3.25;;;4.90;74.90;;;;;;5032585;28;20021;-71
2022/03/06 06:23:40;;;;;;;8.98;3.72;;;4.90;75.10;;;;;;5031062;28;20034;-70
2022/03/06 06:26:08;;;;;;;9.40;3.50;;;4.90;75.10;;;;;;5030995;28;20455;-71
2022/03/06 06:28:34;;;;;;;9.55;3.63;;;4.90;75.10;;;;;;5032083;28;20447;-71
2022/03/06 06:31:00;;;;;;;8.23;3.92;;;4.90;75.00;;;;;;5032095;28;20040;-70
2022/03/06 06:33:26;;;;;;;8.25;3.78;;;4.90;74.70;;;;;;5031295;28;20130;-71
2022/03/06 06:35:52;;;;;;;6.15;3.75;;;5.00;74.70;;;;;;5030673;28;20034;-70
2022/03/06 06:38:18;;;;;;;4.95;3.50;;;5.00;74.60;;;;;;5030878;28;20090;-70
2022/03/06 06:40:43;;;;;;;6.20;3.10;;;5.00;74.60;;;;;;5031835;28;20025;-70
2022/03/06 06:43:09;;;;;;;5.43;3.33;;;5.00;74.50;;;;;;5032079;28;20102;-70
2022/03/06 06:45:34;;;;;;;9.25;3.70;;;4.90;74.40;;;;;;5031878;28;20442;-71
2022/03/06 06:48:01;;;;;;;14.93;5.85;;;5.00;74.40;;;;;;5031820;28;20044;-71
2022/03/06 06:50:26;;;;;;;10.77;4.65;;;5.00;74.30;;;;;;5030756;28;20041;-70
2022/03/06 06:52:52;;;;;;;12.77;5.68;;;5.10;74.20;;;;;;5031634;28;20398;-70
2022/03/06 06:55:17;;;;;;;13.93;5.93;;;5.10;74.20;;;;;;5030092;28;20053;-73
2022/03/06 06:57:43;;;;;;;10.43;5.57;;;5.10;74.10;;;;;;5031937;28;20096;-72
2022/03/06 07:00:09;;;;;;;10.50;5.03;;;5.10;73.90;;;;;;5032205;28;20427;-72
2022/03/06 07:02:35;;;;;;;6.47;3.83;;;5.10;73.90;;;;;;5031673;28;20033;-72
2022/03/06 07:05:00;;;;;;;6.63;3.47;;;5.10;73.80;;;;;;5031590;28;20048;-73
2022/03/06 07:07:26;;;;;;;8.55;3.50;;;5.10;73.80;;;;;;5031276;28;20065;-72
2022/03/06 07:09:54;;;;;;;10.98;4.30;;;5.10;73.90;;;;;;5031289;28;20337;-71
2022/03/06 07:12:20;;;;;;;6.88;3.40;;;5.20;73.90;;;;;;5031745;28;20072;-72
2022/03/06 07:14:45;;;;;;;8.85;3.88;;;5.10;73.70;;;;;;5031327;28;20034;-71
2022/03/06 07:17:11;;;;;;;5.43;3.50;;;5.30;73.80;;;;;;5031228;28;20317;-71
2022/03/06 07:19:36;;;;;;;7.43;3.35;;;5.20;73.80;;;;;;5031163;28;20421;-71
2022/03/06 07:22:02;;;;;;;5.75;3.28;;;5.20;73.50;;;;;;5031275;28;20101;-71
2022/03/06 07:24:27;;;;;;;5.47;3.40;;;5.20;73.40;;;;;;5031758;28;20027;-71
2022/03/06 07:26:53;;;;;;;8.63;3.47;;;5.20;73.30;;;;;;5030332;28;20024;-71
2022/03/06 07:29:19;;;;;;;9.88;3.95;;;5.20;73.10;;;;;;5031748;28;20056;-71
2022/03/06 07:31:44;;;;;;;7.93;3.92;;;5.20;73.10;;;;;;5032109;28;20030;-70
2022/03/06 07:34:10;;;;;;;7.57;3.42;;;5.20;73.10;;;;;;5031802;28;20038;-69
2022/03/06 07:36:36;;;;;;;8.82;3.65;;;5.30;73.20;;;;;;5033905;28;20028;-70
2022/03/06 07:39:01;;;;;;;8.70;3.60;;;5.30;73.20;;;;;;5030906;28;20627;-70
2022/03/06 07:41:27;;;;;;;11.80;3.97;;;5.40;73.10;;;;;;5030977;28;20037;-70
2022/03/06 07:43:52;;;;;;;10.35;3.80;;;5.40;73.20;;;;;;5030796;28;20057;-72
2022/03/06 07:46:18;;;;;;;11.57;3.75;;;5.40;73.10;;;;;;5031046;28;20053;-73
2022/03/06 07:48:43;;;;;;;6.53;3.47;;;5.40;73.40;;;;;;5030825;28;20064;-72
2022/03/06 07:51:09;;;;;;;6.28;3.47;;;5.40;73.70;;;;;;5030251;28;20047;-71
2022/03/06 07:53:34;;;;;;;6.28;3.42;;;5.40;73.50;;;;;;5030773;28;20370;-71
2022/03/06 07:56:00;;;;;;;7.63;3.45;;;5.40;73.70;;;;;;5030586;28;20115;-72
2022/03/06 07:58:26;;;;;;;7.80;3.40;;;5.40;73.50;;;;;;5030679;28;20044;-71
2022/03/06 08:00:51;;;;;;;7.38;4.03;;;5.50;74.00;;;;;;5030783;28;20120;-71
2022/03/06 08:03:17;;;;;;;8.95;3.80;;;5.40;73.50;;;;;;5031206;28;20117;-72
2022/03/06 08:05:44;;;;;;;10.88;3.65;;;5.40;73.10;;;;;;5030664;28;20053;-70
2022/03/06 08:08:09;;;;;;;8.40;3.83;;;5.40;72.90;;;;;;5034842;28;20373;-72
2022/03/06 08:10:35;;;;;;;8.15;3.90;;;5.40;73.00;;;;;;5034724;28;20129;-72
2022/03/06 08:13:00;;;;;;;7.00;3.55;;;5.50;73.00;;;;;;5034580;28;20095;-72
2022/03/06 08:15:26;;;;;;;8.15;3.53;;;5.50;73.00;;;;;;5034908;28;20037;-72
2022/03/06 08:17:52;;;;;;;6.50;3.72;;;5.50;72.80;;;;;;5034330;28;20033;-72
2022/03/06 08:20:17;;;;;;;6.93;3.47;;;5.50;72.60;;;;;;5033243;28;20033;-71
2022/03/06 08:22:43;;;;;;;8.65;3.65;;;5.50;72.70;;;;;;5034352;28;20045;-73
2022/03/06 08:25:09;;;;;;;4.85;3.00;;;5.60;72.70;;;;;;5034366;28;20143;-71
2022/03/06 08:27:35;;;;;;;7.00;3.53;;;5.70;72.50;;;;;;5033552;28;20112;-72
2022/03/06 08:30:03;;;;;;;11.23;3.38;;;5.70;72.40;;;;;;5034356;28;20116;-74
2022/03/06 08:32:28;;;;;;;5.15;3.05;;;5.70;72.90;;;;;;5034481;28;20554;-70
2022/03/06 08:34:55;;;;;;;6.43;2.83;;;5.80;72.00;;;;;;5034171;28;20120;-70
2022/03/06 08:37:20;;;;;;;9.23;3.03;;;5.70;71.90;;;;;;5034333;28;20099;-71
2022/03/06 08:39:47;;;;;;;6.05;3.10;;;5.80;72.30;;;;;;5034299;28;20391;-70
2022/03/06 08:42:13;;;;;;;6.63;3.03;;;5.70;72.00;;;;;;5034552;28;20128;-72
2022/03/06 08:44:39;;;;;;;5.90;2.72;;;5.70;72.20;;;;;;5033793;28;20133;-70
2022/03/06 08:47:05;;;;;;;5.53;2.75;;;5.70;72.10;;;;;;5033923;28;20677;-76
2022/03/06 08:49:31;;;;;;;12.77;2.75;;;5.80;71.90;;;;;;5031187;28;20037;-72
2022/03/06 08:51:57;;;;;;;5.45;2.60;;;5.70;71.60;;;;;;5033776;28;20036;-72
2022/03/06 08:54:23;;;;;;;4.95;2.72;;;5.70;71.60;;;;;;5034384;28;20025;-72
2022/03/06 08:56:48;;;;;;;5.47;2.17;;;5.80;71.60;;;;;;5033985;28;20107;-72
2022/03/06 08:59:14;;;;;;;9.77;2.70;;;5.90;71.20;;;;;;5033841;28;20028;-70
2022/03/06 09:01:40;;;;;;;6.22;2.13;;;5.90;70.90;;;;;;5033849;28;20037;-71
2022/03/06 09:04:05;;;;;;;3.53;2.33;;;5.90;70.60;;;;;;5033610;28;20135;-71
2022/03/06 09:06:31;;;;;;;6.10;2.70;;;6.00;70.60;;;;;;5034108;28;20573;-71
2022/03/06 09:08:56;;;;;;;5.75;2.58;;;6.10;70.30;;;;;;5033725;28;20037;-72
2022/03/06 09:11:22;;;;;;;6.93;2.97;;;6.20;69.90;;;;;;5033877;28;20111;-73
2022/03/06 09:13:48;;;;;;;5.80;2.45;;;6.30;69.50;;;;;;5033670;28;20038;-72
2022/03/06 09:16:13;;;;;;;7.20;3.13;;;6.30;69.10;;;;;;5033522;28;20041;-72
2022/03/06 09:18:39;;;;;;;3.85;2.08;;;6.40;68.60;;;;;;5031943;28;20040;-72
2022/03/06 09:21:10;;;;;;;10.00;2.22;;;6.40;68.50;;;;;;5033968;28;20024;-73
2022/03/06 09:23:36;;;;;;;6.55;2.28;;;6.40;68.30;;;;;;5033508;28;20022;-71
2022/03/06 09:26:02;;;;;;;6.32;2.08;;;6.30;68.10;;;;;;5033356;28;20037;-72
2022/03/06 09:28:27;;;;;;;4.70;2.38;;;6.20;68.00;;;;;;5032433;28;20458;-72
2022/03/06 09:30:53;;;;;;;9.80;2.85;;;6.30;68.10;;;;;;5033375;28;20033;-73
2022/03/06 09:33:18;;;;;;;8.32;2.78;;;6.50;68.10;;;;;;5033821;28;20558;-74
2022/03/06 09:35:45;;;;;;;6.40;2.17;;;6.50;67.90;;;;;;5033241;28;20065;-74
2022/03/06 09:38:11;;;;;;;5.32;2.47;;;6.40;67.30;;;;;;5032805;28;20029;-72
2022/03/06 09:40:39;;;;;;;5.28;2.88;;;6.30;67.00;;;;;;5033009;28;20040;-72
2022/03/06 09:43:10;;;;;;;5.93;2.65;;;6.30;66.40;;;;;;5032818;28;20118;-73
2022/03/06 09:45:40;;;;;;;6.38;2.30;;;6.30;66.70;;;;;;5032972;28;20095;-76
2022/03/06 09:48:07;;;;;;;5.55;2.45;;;6.30;67.00;;;;;;5032950;28;20475;-72
2022/03/06 09:50:33;;;;;;;5.40;2.45;;;6.30;66.90;;;;;;5032781;28;20029;-72
2022/03/06 09:52:58;;;;;;;4.95;2.45;;;6.30;66.80;;;;;;5032557;28;20030;-73
2022/03/06 09:55:25;;;;;;;8.30;2.83;;;6.40;66.60;;;;;;5032527;28;20298;-73
2022/03/06 09:57:55;;;;;;;8.23;2.25;;;6.50;66.60;;;;;;5032665;28;20082;-72
2022/03/06 10:00:21;;;;;;;7.32;2.88;;;6.50;66.20;;;;;;5032866;28;20071;-72
2022/03/06 10:02:57;;;;;;;9.07;2.55;;;6.50;65.20;;;;;;5032555;28;20076;-73
2022/03/06 10:05:38;;;;;;;6.88;3.10;;;6.40;64.70;;;;;;5032281;28;20061;-72
2022/03/06 10:08:28;;;;;;;4.78;2.83;;;6.40;64.60;;;;;;5032334;28;20021;-71
2022/03/06 10:10:57;;;;;;;5.82;2.67;;;6.40;64.70;;;;;;5032305;28;20439;-70
2022/03/06 10:13:25;;;;;;;7.50;3.35;;;6.30;64.40;;;;;;5032508;28;20034;-70
2022/03/06 10:16:10;;;;;;;6.50;2.58;;;6.20;64.40;;;;;;5032163;28;20087;-71
2022/03/06 10:18:55;;;;;;;6.07;3.28;;;6.20;64.50;;;;;;5032448;28;20064;-70
2022/03/06 10:21:36;;;;;;;7.85;2.90;;;6.30;64.50;;;;;;5032171;28;20045;-70
2022/03/06 10:24:08;;;;;;;6.50;3.00;;;6.40;64.30;;;;;;5032021;28;20095;-70
2022/03/06 10:26:36;;;;;;;7.88;2.78;;;6.40;64.40;;;;;;5031882;28;20475;-71
2022/03/06 10:29:02;;;;;;;;;;;6.50;64.50;;;;;;5031681;28;20115;-70
2022/03/06 10:31:33;;;;;;;5.75;2.55;;;6.50;64.50;;;;;;5031756;28;20095;-70
2022/03/06 10:34:03;;;;;;;8.95;3.15;;;6.50;64.40;;;;;;5031548;28;20038;-73
2022/03/06 10:36:36;;;;;;;6.72;3.10;;;6.60;64.40;;;;;;5032219;28;20467;-73
2022/03/06 10:39:08;;;;;;;8.75;3.20;;;6.60;63.50;;;;;;5031543;28;20629;-74
2022/03/06 10:41:36;;;;;;;6.88;3.05;;;6.70;63.60;;;;;;5031724;28;20104;-72
2022/03/06 10:44:02;;;;;;;6.05;3.50;;;6.70;63.30;;;;;;5030484;28;20029;-73
2022/03/06 10:46:28;;;;;;;7.18;3.33;;;6.80;63.10;;;;;;5031432;28;20067;-73
2022/03/06 10:48:56;;;;;;;13.15;4.53;;;6.80;62.40;;;;;;5031450;28;20029;-71
2022/03/06 10:51:22;;;;;;;7.68;2.70;;;6.90;62.10;;;;;;5031811;28;20104;-71
2022/03/06 10:53:57;;;;;;;6.35;3.42;;;6.90;62.00;;;;;;5031316;28;20037;-71
2022/03/06 10:56:23;;;;;;;6.63;3.25;;;6.90;61.70;;;;;;5031322;28;20054;-72
2022/03/06 10:58:48;;;;;;;5.25;3.20;;;6.90;60.80;;;;;;5031307;28;20474;-71
2022/03/06 11:01:15;;;;;;;7.53;3.53;;;6.80;60.50;;;;;;5031177;28;20402;-73
2022/03/06 11:03:42;;;;;;;6.78;3.50;;;6.80;60.50;;;;;;5031264;28;20030;-72
2022/03/06 11:06:11;;;;;;;6.38;3.33;;;6.80;60.50;;;;;;5031592;28;20430;-74
2022/03/06 11:08:38;;;;;;;7.30;3.28;;;6.90;60.10;;;;;;5031064;28;20084;-72
2022/03/06 11:11:12;;;;;;;8.30;4.07;;;6.80;59.50;;;;;;5029985;28;20041;-70
2022/03/06 11:13:38;;;;;;;8.00;3.90;;;6.70;59.70;;;;;;5030982;28;20379;-72
2022/03/06 11:16:13;;;;;;;9.80;3.55;;;6.70;59.80;;;;;;5030858;28;20087;-71
2022/03/06 11:18:39;;;;;;;9.10;4.07;;;6.80;60.20;;;;;;5029687;28;20033;-73
2022/03/06 11:21:13;;;;;;;6.25;3.85;;;6.80;59.60;;;;;;5031400;28;20029;-71
2022/03/06 11:23:48;;;;;;;7.70;4.03;;;6.80;59.10;;;;;;5030832;28;20036;-73
2022/03/06 11:26:35;;;;;;;9.27;4.30;;;6.80;58.90;;;;;;5029629;28;20601;-73
2022/03/06 11:29:32;;;;;;;6.50;4.03;;;6.80;58.80;;;;;;5030884;28;20034;-69
2022/03/06 11:32:03;;;;;;;;;;;6.80;58.90;;;;;;5031113;28;20095;-69
2022/03/06 11:34:31;;;;;;;5.10;3.28;;;6.80;59.30;;;;;;5030678;28;20003;-72
2022/03/06 11:36:57;;;;;;;7.07;3.83;;;6.80;59.00;;;;;;5030835;28;20030;-72
2022/03/06 11:39:32;;;;;;;8.82;4.30;;;6.70;59.00;;;;;;5024030;28;20052;-72
2022/03/06 11:42:00;;;;;;;6.32;3.20;;;6.80;58.60;;;;;;5011320;28;20084;-71
2022/03/06 11:44:34;;;;;;;8.32;3.45;;;6.80;58.40;;;;;;5010677;28;20510;-71
2022/03/06 11:47:10;;;;;;;7.93;3.85;;;6.80;57.90;;;;;;5011038;28;20061;-72
2022/03/06 11:49:36;;;;;;;7.22;3.17;;;6.90;57.90;;;;;;5010977;28;20034;-73
2022/03/06 11:52:21;;;;;;;10.43;3.85;;;6.90;57.50;;;;;;5010792;28;20038;-71
2022/03/06 11:54:47;;;;;;;6.43;3.40;;;6.80;56.60;;;;;;5010486;28;20430;-72
2022/03/06 11:57:39;;;;;;;6.68;3.72;;;6.80;56.50;;;;;;5011055;28;20105;-74
2022/03/06 12:00:24;;;;;;;5.88;3.60;;;6.90;56.50;;;;;;5009562;28;20431;-72
2022/03/06 12:03:01;;;;;;;6.55;3.83;;;6.90;56.00;;;;;;5010711;28;20109;-73
2022/03/06 12:05:48;;;;;;;6.32;3.67;;;6.80;55.80;;;;;;5010604;28;20026;-73
2022/03/06 12:08:15;;;;;;;8.85;3.30;;;6.70;55.60;;;;;;5010559;28;20026;-71
2022/03/06 12:10:41;;;;;;;5.20;3.20;;;6.70;55.50;;;;;;5010907;28;20109;-70
2022/03/06 12:13:17;;;;;;;5.47;2.65;;;6.70;55.50;;;;;;5010661;28;20489;-70
2022/03/06 12:16:13;;;;;;;3.13;2.30;;;6.60;55.60;;;;;;5010512;28;20030;-73
2022/03/06 12:18:39;;;;;;;7.70;3.13;;;6.70;55.70;;;;;;5010502;28;20171;-72
2022/03/06 12:21:22;;;;;;;3.95;2.47;;;6.60;55.60;;;;;;5010833;28;20036;-71
2022/03/06 12:23:47;;;;;;;7.53;3.03;;;6.70;55.80;;;;;;5010461;28;20448;-71
2022/03/06 12:26:13;;;;;;;5.00;2.80;;;6.80;55.90;;;;;;5010336;28;20049;-71
2022/03/06 12:28:43;;;;;;;5.68;2.83;;;6.70;55.70;;;;;;5010445;28;20038;-72
2022/03/06 12:31:29;;;;;;;5.07;2.85;;;6.80;55.80;;;;;;5010492;28;20360;-71
2022/03/06 12:33:55;;;;;;;4.85;2.65;;;6.90;56.00;;;;;;5010513;28;20025;-71
2022/03/06 12:36:23;;;;;;;4.88;3.10;;;6.90;56.40;;;;;;5011167;28;20752;-70
2022/03/06 12:38:58;;;;;;;4.50;2.80;;;6.90;55.80;;;;;;5010571;28;20112;-70
2022/03/06 12:41:24;;;;;;;6.25;2.80;;;6.90;55.70;;;;;;5010477;28;20022;-73
2022/03/06 12:43:57;;;;;;;6.65;3.30;;;6.80;55.70;;;;;;5010684;28;20037;-71
2022/03/06 12:46:23;;;;;;;4.55;2.97;;;6.80;56.20;;;;;;5010492;28;20653;-71
2022/03/06 12:48:49;;;;;;;8.15;3.05;;;6.90;56.40;;;;;;5010323;28;20116;-72
2022/03/06 12:51:37;;;;;;;6.70;3.35;;;6.80;56.90;;;;;;5010762;28;20125;-73
2022/03/06 12:54:04;;;;;;;9.07;3.30;;;6.80;57.10;;;;;;5013734;28;20045;-73
2022/03/06 12:56:33;;;;;;;9.63;4.15;;;6.80;57.40;;;;;;5014118;28;20033;-72